sensor_id;sensor_type;location;lat;lon;timestamp;P1;durP1;ratioP1;P2;durP2;ratioP2
67248;SDS011;63247;54.300;18.592;2023-03-19T00:01:53;39.60;;;15.15;;
67248;SDS011;63247;54.300;18.592;2023-03-19T00:04:19;43.47;;;15.87;;
67248;SDS011;63247;54.300;18.592;2023-03-19T00:06:46;39.00;;;15.20;;
67248;SDS011;63247;54.300;18.592;2023-03-19T00:09:18;38.85;;;15.10;;
67248;SDS011;63247;54.300;18.592;2023-03-19T00:11:45;39.83;;;14.85;;
67248;SDS011;63247;54.300;18.592;2023-03-19T00:14:12;41.67;;;15.87;;
67248;SDS011;63247;54.300;18.592;2023-03-19T00:16:38;44.25;;;15.73;;
67248;SDS011;63247;54.300;18.592;2023-03-19T00:19:04;40.42;;;16.27;;
67248;SDS011;63247;54.300;18.592;2023-03-19T00:21:30;37.30;;;15.15;;
67248;SDS011;63247;54.300;18.592;2023-03-19T00:23:57;40.83;;;16.23;;
67248;SDS011;63247;54.300;18.592;2023-03-19T00:26:26;40.40;;;15.60;;
67248;SDS011;63247;54.300;18.592;2023-03-19T00:28:54;42.25;;;15.32;;
67248;SDS011;63247;54.300;18.592;2023-03-19T00:33:56;40.25;;;15.45;;
67248;SDS011;63247;54.300;18.592;2023-03-19T00:36:23;40.47;;;16.07;;
67248;SDS011;63247;54.300;18.592;2023-03-19T00:38:52;46.75;;;17.92;;
67248;SDS011;63247;54.300;18.592;2023-03-19T00:41:20;43.95;;;17.25;;
67248;SDS011;63247;54.300;18.592;2023-03-19T00:43:49;43.10;;;16.83;;
67248;SDS011;63247;54.300;18.592;2023-03-19T00:46:17;41.35;;;15.73;;
67248;SDS011;63247;54.300;18.592;2023-03-19T00:48:42;35.47;;;15.20;;
67248;SDS011;63247;54.300;18.592;2023-03-19T00:51:09;40.95;;;15.27;;
67248;SDS011;63247;54.300;18.592;2023-03-19T00:53:38;41.27;;;16.47;;
67248;SDS011;63247;54.300;18.592;2023-03-19T00:56:06;42.03;;;16.73;;
67248;SDS011;63247;54.300;18.592;2023-03-19T00:58:33;38.50;;;15.13;;
67248;SDS011;63247;54.300;18.592;2023-03-19T01:00:59;42.42;;;15.70;;
67248;SDS011;63247;54.300;18.592;2023-03-19T01:03:26;41.10;;;15.98;;
67248;SDS011;63247;54.300;18.592;2023-03-19T01:05:52;44.20;;;16.30;;
67248;SDS011;63247;54.300;18.592;2023-03-19T01:08:18;42.97;;;15.45;;
67248;SDS011;63247;54.300;18.592;2023-03-19T01:10:43;43.47;;;15.67;;
67248;SDS011;63247;54.300;18.592;2023-03-19T01:13:10;39.30;;;15.27;;
67248;SDS011;63247;54.300;18.592;2023-03-19T01:15:37;36.15;;;14.88;;
67248;SDS011;63247;54.300;18.592;2023-03-19T01:18:04;41.65;;;15.82;;
67248;SDS011;63247;54.300;18.592;2023-03-19T01:20:30;41.17;;;17.27;;
67248;SDS011;63247;54.300;18.592;2023-03-19T01:22:56;48.30;;;17.43;;
67248;SDS011;63247;54.300;18.592;2023-03-19T01:25:21;51.90;;;19.00;;
67248;SDS011;63247;54.300;18.592;2023-03-19T01:27:47;46.50;;;16.25;;
67248;SDS011;63247;54.300;18.592;2023-03-19T01:30:12;50.23;;;19.70;;
67248;SDS011;63247;54.300;18.592;2023-03-19T01:32:38;44.63;;;16.98;;
67248;SDS011;63247;54.300;18.592;2023-03-19T01:35:04;46.30;;;17.60;;
67248;SDS011;63247;54.300;18.592;2023-03-19T01:37:31;42.87;;;16.57;;
67248;SDS011;63247;54.300;18.592;2023-03-19T01:39:57;47.03;;;17.63;;
67248;SDS011;63247;54.300;18.592;2023-03-19T01:42:22;50.17;;;18.03;;
67248;SDS011;63247;54.300;18.592;2023-03-19T01:44:48;45.00;;;17.70;;
67248;SDS011;63247;54.300;18.592;2023-03-19T01:47:18;44.87;;;17.67;;
67248;SDS011;63247;54.300;18.592;2023-03-19T01:49:53;48.22;;;18.25;;
67248;SDS011;63247;54.300;18.592;2023-03-19T01:52:20;52.72;;;18.20;;
67248;SDS011;63247;54.300;18.592;2023-03-19T01:54:47;41.05;;;16.42;;
67248;SDS011;63247;54.300;18.592;2023-03-19T01:57:15;42.58;;;16.92;;
67248;SDS011;63247;54.300;18.592;2023-03-19T01:59:42;44.10;;;17.03;;
67248;SDS011;63247;54.300;18.592;2023-03-19T02:05:04;59.25;;;20.75;;
67248;SDS011;63247;54.300;18.592;2023-03-19T02:07:40;47.47;;;16.65;;
67248;SDS011;63247;54.300;18.592;2023-03-19T02:10:09;46.17;;;16.65;;
67248;SDS011;63247;54.300;18.592;2023-03-19T02:12:37;43.23;;;16.50;;
67248;SDS011;63247;54.300;18.592;2023-03-19T02:15:03;47.97;;;16.77;;
67248;SDS011;63247;54.300;18.592;2023-03-19T02:17:29;44.27;;;16.83;;
67248;SDS011;63247;54.300;18.592;2023-03-19T02:19:56;40.85;;;16.90;;
67248;SDS011;63247;54.300;18.592;2023-03-19T02:22:24;44.63;;;16.73;;
67248;SDS011;63247;54.300;18.592;2023-03-19T02:24:58;41.53;;;16.75;;
67248;SDS011;63247;54.300;18.592;2023-03-19T02:27:35;41.58;;;16.50;;
67248;SDS011;63247;54.300;18.592;2023-03-19T02:30:16;42.30;;;16.17;;
67248;SDS011;63247;54.300;18.592;2023-03-19T02:32:43;40.63;;;16.15;;
67248;SDS011;63247;54.300;18.592;2023-03-19T02:35:08;52.70;;;19.57;;
67248;SDS011;63247;54.300;18.592;2023-03-19T02:37:34;47.78;;;18.55;;
67248;SDS011;63247;54.300;18.592;2023-03-19T02:40:03;45.57;;;17.03;;
67248;SDS011;63247;54.300;18.592;2023-03-19T02:42:33;40.97;;;16.20;;
67248;SDS011;63247;54.300;18.592;2023-03-19T02:44:59;48.13;;;18.05;;
67248;SDS011;63247;54.300;18.592;2023-03-19T02:47:25;46.77;;;17.10;;
67248;SDS011;63247;54.300;18.592;2023-03-19T02:49:51;43.38;;;16.92;;
67248;SDS011;63247;54.300;18.592;2023-03-19T02:52:18;46.45;;;17.65;;
67248;SDS011;63247;54.300;18.592;2023-03-19T02:54:44;45.63;;;17.70;;
67248;SDS011;63247;54.300;18.592;2023-03-19T02:57:10;47.22;;;18.42;;
67248;SDS011;63247;54.300;18.592;2023-03-19T02:59:36;41.92;;;17.25;;
67248;SDS011;63247;54.300;18.592;2023-03-19T03:02:03;42.83;;;16.70;;
67248;SDS011;63247;54.300;18.592;2023-03-19T03:04:29;45.70;;;17.45;;
67248;SDS011;63247;54.300;18.592;2023-03-19T03:06:55;41.55;;;16.90;;
67248;SDS011;63247;54.300;18.592;2023-03-19T03:09:21;45.20;;;16.88;;
67248;SDS011;63247;54.300;18.592;2023-03-19T03:11:47;47.08;;;17.33;;
67248;SDS011;63247;54.300;18.592;2023-03-19T03:14:13;46.25;;;17.70;;
67248;SDS011;63247;54.300;18.592;2023-03-19T03:16:39;47.73;;;18.37;;
67248;SDS011;63247;54.300;18.592;2023-03-19T03:19:04;52.80;;;18.95;;
67248;SDS011;63247;54.300;18.592;2023-03-19T03:21:30;46.03;;;17.87;;
67248;SDS011;63247;54.300;18.592;2023-03-19T03:23:56;45.30;;;18.45;;
67248;SDS011;63247;54.300;18.592;2023-03-19T03:26:21;45.00;;;17.90;;
67248;SDS011;63247;54.300;18.592;2023-03-19T03:28:47;45.07;;;17.47;;
67248;SDS011;63247;54.300;18.592;2023-03-19T03:31:12;45.25;;;18.13;;
67248;SDS011;63247;54.300;18.592;2023-03-19T03:33:38;48.57;;;17.70;;
67248;SDS011;63247;54.300;18.592;2023-03-19T03:36:04;46.72;;;17.00;;
67248;SDS011;63247;54.300;18.592;2023-03-19T03:38:30;44.73;;;17.47;;
67248;SDS011;63247;54.300;18.592;2023-03-19T03:40:56;41.95;;;16.95;;
67248;SDS011;63247;54.300;18.592;2023-03-19T03:43:22;44.13;;;16.48;;
67248;SDS011;63247;54.300;18.592;2023-03-19T03:45:49;42.50;;;16.57;;
67248;SDS011;63247;54.300;18.592;2023-03-19T03:48:15;40.83;;;16.27;;
67248;SDS011;63247;54.300;18.592;2023-03-19T03:50:40;44.25;;;16.02;;
67248;SDS011;63247;54.300;18.592;2023-03-19T03:53:06;44.85;;;17.92;;
67248;SDS011;63247;54.300;18.592;2023-03-19T03:55:32;42.08;;;16.90;;
67248;SDS011;63247;54.300;18.592;2023-03-19T03:57:58;49.60;;;17.27;;
67248;SDS011;63247;54.300;18.592;2023-03-19T04:00:24;66.22;;;25.92;;
67248;SDS011;63247;54.300;18.592;2023-03-19T04:02:50;78.35;;;33.05;;
67248;SDS011;63247;54.300;18.592;2023-03-19T04:05:16;58.07;;;21.80;;
67248;SDS011;63247;54.300;18.592;2023-03-19T04:07:42;44.17;;;16.48;;
67248;SDS011;63247;54.300;18.592;2023-03-19T04:10:09;45.60;;;16.55;;
67248;SDS011;63247;54.300;18.592;2023-03-19T04:12:35;41.97;;;16.83;;
67248;SDS011;63247;54.300;18.592;2023-03-19T04:15:04;47.97;;;18.17;;
67248;SDS011;63247;54.300;18.592;2023-03-19T04:17:32;50.33;;;17.75;;
67248;SDS011;63247;54.300;18.592;2023-03-19T04:19:57;44.50;;;17.58;;
67248;SDS011;63247;54.300;18.592;2023-03-19T04:22:23;43.10;;;16.33;;
67248;SDS011;63247;54.300;18.592;2023-03-19T04:24:49;40.70;;;16.67;;
67248;SDS011;63247;54.300;18.592;2023-03-19T04:27:14;53.03;;;19.15;;
67248;SDS011;63247;54.300;18.592;2023-03-19T04:29:40;43.63;;;18.07;;
67248;SDS011;63247;54.300;18.592;2023-03-19T04:32:05;53.63;;;18.08;;
67248;SDS011;63247;54.300;18.592;2023-03-19T04:34:31;44.88;;;17.70;;
67248;SDS011;63247;54.300;18.592;2023-03-19T04:36:57;44.47;;;17.35;;
67248;SDS011;63247;54.300;18.592;2023-03-19T04:39:23;48.05;;;17.50;;
67248;SDS011;63247;54.300;18.592;2023-03-19T04:41:49;46.85;;;18.05;;
67248;SDS011;63247;54.300;18.592;2023-03-19T04:44:14;48.17;;;19.20;;
67248;SDS011;63247;54.300;18.592;2023-03-19T04:46:40;48.35;;;18.73;;
67248;SDS011;63247;54.300;18.592;2023-03-19T04:49:06;44.40;;;18.33;;
67248;SDS011;63247;54.300;18.592;2023-03-19T04:51:32;44.17;;;17.38;;
67248;SDS011;63247;54.300;18.592;2023-03-19T04:53:58;47.97;;;18.00;;
67248;SDS011;63247;54.300;18.592;2023-03-19T04:56:24;48.63;;;18.20;;
67248;SDS011;63247;54.300;18.592;2023-03-19T04:58:49;50.33;;;18.60;;
67248;SDS011;63247;54.300;18.592;2023-03-19T05:01:15;46.07;;;17.53;;
67248;SDS011;63247;54.300;18.592;2023-03-19T05:03:41;46.78;;;18.00;;
67248;SDS011;63247;54.300;18.592;2023-03-19T05:06:07;46.47;;;18.33;;
67248;SDS011;63247;54.300;18.592;2023-03-19T05:08:33;49.65;;;17.50;;
67248;SDS011;63247;54.300;18.592;2023-03-19T05:10:58;44.20;;;17.90;;
67248;SDS011;63247;54.300;18.592;2023-03-19T05:13:24;47.78;;;17.27;;
67248;SDS011;63247;54.300;18.592;2023-03-19T05:15:51;41.77;;;16.67;;
67248;SDS011;63247;54.300;18.592;2023-03-19T05:18:18;44.83;;;17.27;;
67248;SDS011;63247;54.300;18.592;2023-03-19T05:20:44;46.33;;;19.00;;
67248;SDS011;63247;54.300;18.592;2023-03-19T05:23:09;48.53;;;18.83;;
67248;SDS011;63247;54.300;18.592;2023-03-19T05:25:35;44.00;;;16.67;;
67248;SDS011;63247;54.300;18.592;2023-03-19T05:28:01;46.03;;;17.13;;
67248;SDS011;63247;54.300;18.592;2023-03-19T05:30:28;44.90;;;17.08;;
67248;SDS011;63247;54.300;18.592;2023-03-19T05:32:55;46.92;;;18.55;;
67248;SDS011;63247;54.300;18.592;2023-03-19T05:35:21;42.28;;;17.85;;
67248;SDS011;63247;54.300;18.592;2023-03-19T05:37:46;43.53;;;18.80;;
67248;SDS011;63247;54.300;18.592;2023-03-19T05:40:12;47.65;;;19.05;;
67248;SDS011;63247;54.300;18.592;2023-03-19T05:42:37;45.97;;;18.40;;
67248;SDS011;63247;54.300;18.592;2023-03-19T05:45:03;43.47;;;18.20;;
67248;SDS011;63247;54.300;18.592;2023-03-19T05:47:29;45.90;;;17.70;;
67248;SDS011;63247;54.300;18.592;2023-03-19T05:49:55;43.92;;;17.58;;
67248;SDS011;63247;54.300;18.592;2023-03-19T05:52:21;49.30;;;18.87;;
67248;SDS011;63247;54.300;18.592;2023-03-19T05:54:47;47.60;;;18.60;;
67248;SDS011;63247;54.300;18.592;2023-03-19T05:57:14;42.53;;;17.52;;
67248;SDS011;63247;54.300;18.592;2023-03-19T05:59:40;43.90;;;18.63;;
67248;SDS011;63247;54.300;18.592;2023-03-19T06:02:06;47.60;;;19.40;;
67248;SDS011;63247;54.300;18.592;2023-03-19T06:04:31;45.17;;;18.67;;
67248;SDS011;63247;54.300;18.592;2023-03-19T06:06:57;43.60;;;17.97;;
67248;SDS011;63247;54.300;18.592;2023-03-19T06:09:23;45.37;;;17.27;;
67248;SDS011;63247;54.300;18.592;2023-03-19T06:11:49;42.95;;;16.58;;
67248;SDS011;63247;54.300;18.592;2023-03-19T06:14:14;43.27;;;17.23;;
67248;SDS011;63247;54.300;18.592;2023-03-19T06:16:40;40.92;;;17.67;;
67248;SDS011;63247;54.300;18.592;2023-03-19T06:19:05;46.73;;;17.93;;
67248;SDS011;63247;54.300;18.592;2023-03-19T06:21:31;40.38;;;17.02;;
67248;SDS011;63247;54.300;18.592;2023-03-19T06:23:56;41.57;;;17.13;;
67248;SDS011;63247;54.300;18.592;2023-03-19T06:26:23;43.47;;;18.23;;
67248;SDS011;63247;54.300;18.592;2023-03-19T06:28:49;47.17;;;18.70;;
67248;SDS011;63247;54.300;18.592;2023-03-19T06:31:15;40.83;;;17.70;;
67248;SDS011;63247;54.300;18.592;2023-03-19T06:33:41;40.13;;;17.40;;
67248;SDS011;63247;54.300;18.592;2023-03-19T06:36:07;45.03;;;17.87;;
67248;SDS011;63247;54.300;18.592;2023-03-19T06:38:32;42.58;;;17.45;;
67248;SDS011;63247;54.300;18.592;2023-03-19T06:40:59;42.13;;;18.60;;
67248;SDS011;63247;54.300;18.592;2023-03-19T06:43:26;47.10;;;18.97;;
67248;SDS011;63247;54.300;18.592;2023-03-19T06:45:51;42.05;;;17.27;;
67248;SDS011;63247;54.300;18.592;2023-03-19T06:48:17;44.00;;;19.07;;
67248;SDS011;63247;54.300;18.592;2023-03-19T06:50:44;53.45;;;20.17;;
67248;SDS011;63247;54.300;18.592;2023-03-19T06:53:11;47.65;;;19.15;;
67248;SDS011;63247;54.300;18.592;2023-03-19T06:55:37;47.00;;;19.10;;
67248;SDS011;63247;54.300;18.592;2023-03-19T06:58:05;50.55;;;19.70;;
67248;SDS011;63247;54.300;18.592;2023-03-19T07:00:31;45.83;;;18.88;;
67248;SDS011;63247;54.300;18.592;2023-03-19T07:02:57;43.10;;;18.15;;
67248;SDS011;63247;54.300;18.592;2023-03-19T07:05:23;41.60;;;18.77;;
67248;SDS011;63247;54.300;18.592;2023-03-19T07:07:49;45.03;;;18.45;;
67248;SDS011;63247;54.300;18.592;2023-03-19T07:10:16;43.20;;;19.50;;
67248;SDS011;63247;54.300;18.592;2023-03-19T07:12:45;49.10;;;21.63;;
67248;SDS011;63247;54.300;18.592;2023-03-19T07:15:11;46.70;;;20.35;;
67248;SDS011;63247;54.300;18.592;2023-03-19T07:17:37;45.28;;;19.83;;
67248;SDS011;63247;54.300;18.592;2023-03-19T07:20:03;44.38;;;19.02;;
67248;SDS011;63247;54.300;18.592;2023-03-19T07:22:31;38.85;;;17.88;;
67248;SDS011;63247;54.300;18.592;2023-03-19T07:24:56;42.03;;;18.00;;
67248;SDS011;63247;54.300;18.592;2023-03-19T07:27:22;41.17;;;18.23;;
67248;SDS011;63247;54.300;18.592;2023-03-19T07:29:48;41.97;;;17.97;;
67248;SDS011;63247;54.300;18.592;2023-03-19T07:32:13;37.50;;;16.73;;
67248;SDS011;63247;54.300;18.592;2023-03-19T07:34:39;40.67;;;17.55;;
67248;SDS011;63247;54.300;18.592;2023-03-19T07:37:05;38.30;;;17.40;;
67248;SDS011;63247;54.300;18.592;2023-03-19T07:39:31;38.72;;;17.20;;
67248;SDS011;63247;54.300;18.592;2023-03-19T07:41:57;38.00;;;16.70;;
67248;SDS011;63247;54.300;18.592;2023-03-19T07:44:22;36.00;;;16.83;;
67248;SDS011;63247;54.300;18.592;2023-03-19T07:46:48;37.33;;;16.93;;
67248;SDS011;63247;54.300;18.592;2023-03-19T07:49:13;38.78;;;17.10;;
67248;SDS011;63247;54.300;18.592;2023-03-19T07:51:39;38.80;;;16.30;;
67248;SDS011;63247;54.300;18.592;2023-03-19T07:54:05;41.58;;;18.85;;
67248;SDS011;63247;54.300;18.592;2023-03-19T07:56:31;36.30;;;16.15;;
67248;SDS011;63247;54.300;18.592;2023-03-19T07:58:56;38.53;;;16.38;;
67248;SDS011;63247;54.300;18.592;2023-03-19T08:01:23;39.43;;;17.17;;
67248;SDS011;63247;54.300;18.592;2023-03-19T08:03:49;34.92;;;16.75;;
67248;SDS011;63247;54.300;18.592;2023-03-19T08:06:16;37.72;;;17.00;;
67248;SDS011;63247;54.300;18.592;2023-03-19T08:08:41;54.50;;;31.07;;
67248;SDS011;63247;54.300;18.592;2023-03-19T08:11:07;84.50;;;32.30;;
67248;SDS011;63247;54.300;18.592;2023-03-19T08:13:32;78.80;;;26.00;;
67248;SDS011;63247;54.300;18.592;2023-03-19T08:15:58;42.88;;;18.33;;
67248;SDS011;63247;54.300;18.592;2023-03-19T08:18:24;49.30;;;23.03;;
67248;SDS011;63247;54.300;18.592;2023-03-19T08:20:50;31.40;;;15.35;;
67248;SDS011;63247;54.300;18.592;2023-03-19T08:23:16;33.60;;;16.38;;
67248;SDS011;63247;54.300;18.592;2023-03-19T08:25:42;40.75;;;19.05;;
67248;SDS011;63247;54.300;18.592;2023-03-19T08:28:08;45.28;;;21.85;;
67248;SDS011;63247;54.300;18.592;2023-03-19T08:30:34;47.78;;;21.90;;
67248;SDS011;63247;54.300;18.592;2023-03-19T08:33:00;48.05;;;22.52;;
67248;SDS011;63247;54.300;18.592;2023-03-19T08:35:26;57.45;;;26.77;;
67248;SDS011;63247;54.300;18.592;2023-03-19T08:37:52;43.20;;;22.87;;
67248;SDS011;63247;54.300;18.592;2023-03-19T08:40:18;45.97;;;23.40;;
67248;SDS011;63247;54.300;18.592;2023-03-19T08:42:44;48.33;;;24.67;;
67248;SDS011;63247;54.300;18.592;2023-03-19T08:45:11;53.97;;;25.63;;
67248;SDS011;63247;54.300;18.592;2023-03-19T08:47:39;49.08;;;25.98;;
67248;SDS011;63247;54.300;18.592;2023-03-19T08:50:05;48.65;;;25.20;;
67248;SDS011;63247;54.300;18.592;2023-03-19T08:52:32;40.00;;;22.52;;
67248;SDS011;63247;54.300;18.592;2023-03-19T08:54:57;40.97;;;22.75;;
67248;SDS011;63247;54.300;18.592;2023-03-19T08:57:23;37.93;;;21.60;;
67248;SDS011;63247;54.300;18.592;2023-03-19T08:59:48;40.73;;;22.37;;
67248;SDS011;63247;54.300;18.592;2023-03-19T09:02:16;42.33;;;22.20;;
67248;SDS011;63247;54.300;18.592;2023-03-19T09:04:42;41.67;;;22.90;;
67248;SDS011;63247;54.300;18.592;2023-03-19T09:07:08;40.20;;;21.60;;
67248;SDS011;63247;54.300;18.592;2023-03-19T09:09:40;41.08;;;21.35;;
67248;SDS011;63247;54.300;18.592;2023-03-19T09:12:07;37.15;;;21.17;;
67248;SDS011;63247;54.300;18.592;2023-03-19T09:14:34;44.55;;;23.80;;
67248;SDS011;63247;54.300;18.592;2023-03-19T09:17:01;35.67;;;20.55;;
67248;SDS011;63247;54.300;18.592;2023-03-19T09:19:27;35.38;;;20.25;;
67248;SDS011;63247;54.300;18.592;2023-03-19T09:21:53;39.50;;;23.05;;
67248;SDS011;63247;54.300;18.592;2023-03-19T09:24:21;44.35;;;24.20;;
67248;SDS011;63247;54.300;18.592;2023-03-19T09:26:47;43.42;;;25.02;;
67248;SDS011;63247;54.300;18.592;2023-03-19T09:29:13;48.20;;;26.23;;
67248;SDS011;63247;54.300;18.592;2023-03-19T09:31:40;39.97;;;20.63;;
67248;SDS011;63247;54.300;18.592;2023-03-19T09:34:06;44.75;;;22.40;;
67248;SDS011;63247;54.300;18.592;2023-03-19T09:36:33;41.67;;;22.77;;
67248;SDS011;63247;54.300;18.592;2023-03-19T09:38:59;40.80;;;21.98;;
67248;SDS011;63247;54.300;18.592;2023-03-19T09:41:31;35.20;;;19.23;;
67248;SDS011;63247;54.300;18.592;2023-03-19T09:44:15;36.80;;;19.20;;
67248;SDS011;63247;54.300;18.592;2023-03-19T09:47:01;37.78;;;18.90;;
67248;SDS011;63247;54.300;18.592;2023-03-19T09:49:51;32.90;;;18.10;;
67248;SDS011;63247;54.300;18.592;2023-03-19T09:54:55;34.72;;;17.30;;
67248;SDS011;63247;54.300;18.592;2023-03-19T09:57:24;35.08;;;16.88;;
67248;SDS011;63247;54.300;18.592;2023-03-19T09:59:53;30.02;;;14.30;;
67248;SDS011;63247;54.300;18.592;2023-03-19T10:15:58;22.42;;;11.85;;
67248;SDS011;63247;54.300;18.592;2023-03-19T10:18:30;27.25;;;13.43;;
67248;SDS011;63247;54.300;18.592;2023-03-19T10:21:01;26.50;;;13.40;;
67248;SDS011;63247;54.300;18.592;2023-03-19T10:23:36;24.98;;;13.15;;
67248;SDS011;63247;54.300;18.592;2023-03-19T10:26:28;27.48;;;13.88;;
67248;SDS011;63247;54.300;18.592;2023-03-19T10:29:05;31.45;;;13.70;;
67248;SDS011;63247;54.300;18.592;2023-03-19T10:31:40;28.33;;;13.18;;
67248;SDS011;63247;54.300;18.592;2023-03-19T10:34:33;26.88;;;13.35;;
67248;SDS011;63247;54.300;18.592;2023-03-19T10:37:02;28.40;;;14.13;;
67248;SDS011;63247;54.300;18.592;2023-03-19T10:39:33;25.15;;;12.70;;
67248;SDS011;63247;54.300;18.592;2023-03-19T10:45:27;25.58;;;12.15;;
67248;SDS011;63247;54.300;18.592;2023-03-19T10:47:55;26.00;;;11.93;;
67248;SDS011;63247;54.300;18.592;2023-03-19T10:51:07;25.90;;;12.00;;
67248;SDS011;63247;54.300;18.592;2023-03-19T10:58:21;24.48;;;12.43;;
67248;SDS011;63247;54.300;18.592;2023-03-19T11:00:54;28.08;;;12.43;;
67248;SDS011;63247;54.300;18.592;2023-03-19T11:03:27;27.70;;;12.23;;
67248;SDS011;63247;54.300;18.592;2023-03-19T11:06:03;25.85;;;12.43;;
67248;SDS011;63247;54.300;18.592;2023-03-19T11:08:35;31.67;;;17.13;;
67248;SDS011;63247;54.300;18.592;2023-03-19T11:11:02;26.60;;;12.82;;
67248;SDS011;63247;54.300;18.592;2023-03-19T11:13:28;25.70;;;12.10;;
67248;SDS011;63247;54.300;18.592;2023-03-19T11:15:54;25.70;;;11.98;;
67248;SDS011;63247;54.300;18.592;2023-03-19T11:18:27;26.90;;;11.90;;
67248;SDS011;63247;54.300;18.592;2023-03-19T11:21:05;26.00;;;11.00;;
67248;SDS011;63247;54.300;18.592;2023-03-19T11:23:52;26.90;;;12.05;;
67248;SDS011;63247;54.300;18.592;2023-03-19T11:26:24;26.65;;;12.95;;
67248;SDS011;63247;54.300;18.592;2023-03-19T11:28:52;26.05;;;12.20;;
67248;SDS011;63247;54.300;18.592;2023-03-19T11:36:38;22.85;;;11.85;;
67248;SDS011;63247;54.300;18.592;2023-03-19T11:39:17;24.27;;;11.65;;
67248;SDS011;63247;54.300;18.592;2023-03-19T11:53:06;22.85;;;11.00;;
67248;SDS011;63247;54.300;18.592;2023-03-19T12:01:54;21.13;;;10.02;;
67248;SDS011;63247;54.300;18.592;2023-03-19T12:07:04;24.42;;;10.63;;
67248;SDS011;63247;54.300;18.592;2023-03-19T12:12:48;26.83;;;11.70;;
67248;SDS011;63247;54.300;18.592;2023-03-19T12:20:55;22.08;;;9.90;;
67248;SDS011;63247;54.300;18.592;2023-03-19T12:26:23;17.90;;;9.00;;
67248;SDS011;63247;54.300;18.592;2023-03-19T12:34:41;20.67;;;10.00;;
67248;SDS011;63247;54.300;18.592;2023-03-19T12:42:39;18.55;;;9.20;;
67248;SDS011;63247;54.300;18.592;2023-03-19T12:47:59;21.63;;;10.13;;
67248;SDS011;63247;54.300;18.592;2023-03-19T12:50:31;20.00;;;9.57;;
67248;SDS011;63247;54.300;18.592;2023-03-19T12:53:00;20.02;;;9.60;;
67248;SDS011;63247;54.300;18.592;2023-03-19T13:01:15;21.20;;;9.63;;
67248;SDS011;63247;54.300;18.592;2023-03-19T13:06:31;21.30;;;8.15;;
67248;SDS011;63247;54.300;18.592;2023-03-19T13:09:23;20.35;;;8.82;;
67248;SDS011;63247;54.300;18.592;2023-03-19T13:12:04;18.83;;;9.00;;
67248;SDS011;63247;54.300;18.592;2023-03-19T13:22:55;19.42;;;9.13;;
67248;SDS011;63247;54.300;18.592;2023-03-19T13:25:47;18.92;;;8.75;;
67248;SDS011;63247;54.300;18.592;2023-03-19T13:28:19;21.00;;;9.90;;
67248;SDS011;63247;54.300;18.592;2023-03-19T13:31:01;19.50;;;8.83;;
67248;SDS011;63247;54.300;18.592;2023-03-19T13:33:32;20.52;;;10.00;;
67248;SDS011;63247;54.300;18.592;2023-03-19T13:36:06;21.88;;;9.20;;
67248;SDS011;63247;54.300;18.592;2023-03-19T13:38:41;18.38;;;8.88;;
67248;SDS011;63247;54.300;18.592;2023-03-19T13:43:57;20.43;;;9.00;;
67248;SDS011;63247;54.300;18.592;2023-03-19T13:46:29;17.83;;;8.77;;
67248;SDS011;63247;54.300;18.592;2023-03-19T13:49:06;19.73;;;9.18;;
67248;SDS011;63247;54.300;18.592;2023-03-19T13:51:48;18.75;;;8.50;;
67248;SDS011;63247;54.300;18.592;2023-03-19T13:54:15;19.80;;;9.43;;
67248;SDS011;63247;54.300;18.592;2023-03-19T13:59:38;20.13;;;9.98;;
67248;SDS011;63247;54.300;18.592;2023-03-19T14:05:31;21.25;;;10.80;;
67248;SDS011;63247;54.300;18.592;2023-03-19T14:07:41;21.02;;;9.82;;
67248;SDS011;63247;54.300;18.592;2023-03-19T14:10:21;22.73;;;9.67;;
67248;SDS011;63247;54.300;18.592;2023-03-19T14:12:50;22.70;;;9.98;;
67248;SDS011;63247;54.300;18.592;2023-03-19T14:15:25;23.17;;;10.50;;
67248;SDS011;63247;54.300;18.592;2023-03-19T14:20:43;21.13;;;10.57;;
67248;SDS011;63247;54.300;18.592;2023-03-19T14:23:18;23.47;;;10.00;;
67248;SDS011;63247;54.300;18.592;2023-03-19T14:28:18;20.67;;;8.82;;
67248;SDS011;63247;54.300;18.592;2023-03-19T14:30:49;22.67;;;10.98;;
67248;SDS011;63247;54.300;18.592;2023-03-19T14:33:17;22.65;;;10.40;;
67248;SDS011;63247;54.300;18.592;2023-03-19T14:35:47;25.15;;;10.75;;
67248;SDS011;63247;54.300;18.592;2023-03-19T14:41:02;26.48;;;9.77;;
67248;SDS011;63247;54.300;18.592;2023-03-19T14:54:40;28.77;;;12.75;;
67248;SDS011;63247;54.300;18.592;2023-03-19T14:57:16;24.35;;;9.73;;
67248;SDS011;63247;54.300;18.592;2023-03-19T14:59:43;27.15;;;12.63;;
67248;SDS011;63247;54.300;18.592;2023-03-19T15:02:17;32.58;;;13.40;;
67248;SDS011;63247;54.300;18.592;2023-03-19T15:05:03;34.80;;;14.10;;
67248;SDS011;63247;54.300;18.592;2023-03-19T15:07:33;33.17;;;15.07;;
67248;SDS011;63247;54.300;18.592;2023-03-19T15:10:03;39.53;;;14.70;;
67248;SDS011;63247;54.300;18.592;2023-03-19T15:12:38;34.78;;;15.48;;
67248;SDS011;63247;54.300;18.592;2023-03-19T15:15:23;35.22;;;14.20;;
67248;SDS011;63247;54.300;18.592;2023-03-19T15:17:58;40.40;;;17.20;;
67248;SDS011;63247;54.300;18.592;2023-03-19T15:20:28;39.93;;;16.83;;
67248;SDS011;63247;54.300;18.592;2023-03-19T15:23:00;38.47;;;15.93;;
67248;SDS011;63247;54.300;18.592;2023-03-19T15:25:28;35.80;;;16.38;;
67248;SDS011;63247;54.300;18.592;2023-03-19T15:28:04;34.03;;;14.85;;
67248;SDS011;63247;54.300;18.592;2023-03-19T15:30:35;36.88;;;16.83;;
67248;SDS011;63247;54.300;18.592;2023-03-19T15:33:01;35.70;;;16.75;;
67248;SDS011;63247;54.300;18.592;2023-03-19T15:35:33;36.78;;;15.05;;
67248;SDS011;63247;54.300;18.592;2023-03-19T15:38:06;32.40;;;14.90;;
67248;SDS011;63247;54.300;18.592;2023-03-19T15:40:34;37.55;;;15.73;;
67248;SDS011;63247;54.300;18.592;2023-03-19T15:43:02;34.78;;;15.55;;
67248;SDS011;63247;54.300;18.592;2023-03-19T15:45:28;37.35;;;16.58;;
67248;SDS011;63247;54.300;18.592;2023-03-19T15:48:06;37.87;;;15.70;;
67248;SDS011;63247;54.300;18.592;2023-03-19T15:50:34;36.90;;;15.55;;
67248;SDS011;63247;54.300;18.592;2023-03-19T15:53:02;31.90;;;15.75;;
67248;SDS011;63247;54.300;18.592;2023-03-19T15:55:32;34.28;;;14.82;;
67248;SDS011;63247;54.300;18.592;2023-03-19T15:58:01;38.15;;;15.70;;
67248;SDS011;63247;54.300;18.592;2023-03-19T16:00:39;39.93;;;18.03;;
67248;SDS011;63247;54.300;18.592;2023-03-19T16:03:05;38.63;;;17.40;;
67248;SDS011;63247;54.300;18.592;2023-03-19T16:05:50;38.53;;;17.75;;
67248;SDS011;63247;54.300;18.592;2023-03-19T16:08:26;90.20;;;39.83;;
67248;SDS011;63247;54.300;18.592;2023-03-19T16:10:54;67.68;;;29.77;;
67248;SDS011;63247;54.300;18.592;2023-03-19T16:13:21;57.00;;;25.57;;
67248;SDS011;63247;54.300;18.592;2023-03-19T16:18:48;130.70;;;55.35;;
67248;SDS011;63247;54.300;18.592;2023-03-19T16:21:18;96.50;;;36.73;;
67248;SDS011;63247;54.300;18.592;2023-03-19T16:31:43;35.88;;;16.45;;
67248;SDS011;63247;54.300;18.592;2023-03-19T16:36:47;127.28;;;35.13;;